createdAt,value
2022-07-29T00:07:50.158Z,8.80
2022-07-29T00:17:49.783Z,6.10
2022-07-29T00:27:49.426Z,5.60
2022-07-29T00:37:49.187Z,4.80
2022-07-29T00:47:54.323Z,4.00
2022-07-29T00:57:53.985Z,4.60
2022-07-29T01:07:53.612Z,5.80
2022-07-29T01:17:53.854Z,5.20
2022-07-29T01:27:52.898Z,5.40
2022-07-29T01:37:52.992Z,4.30
2022-07-29T01:47:58.130Z,5.20
2022-07-29T01:57:57.767Z,4.30
2022-07-29T02:07:57.414Z,4.90
2022-07-29T02:17:57.022Z,5.90
2022-07-29T02:27:56.664Z,4.50
2022-07-29T02:37:56.470Z,4.60
2022-07-29T02:48:01.616Z,4.20
2022-07-29T02:58:01.254Z,5.50
2022-07-29T03:08:00.869Z,4.90
2022-07-29T03:18:00.517Z,4.90
2022-07-29T03:28:00.148Z,4.40
2022-07-29T03:37:59.784Z,5.50
2022-07-29T03:48:04.927Z,7.10
2022-07-29T03:58:04.569Z,5.10
2022-07-29T04:08:04.218Z,5.50
2022-07-29T04:18:03.866Z,6.60
2022-07-29T04:28:03.511Z,5.10
2022-07-29T04:38:03.175Z,5.40
2022-07-29T04:48:08.313Z,5.80
2022-07-29T04:58:07.942Z,4.80
2022-07-29T05:08:07.566Z,4.60
2022-07-29T05:18:07.208Z,5.00
2022-07-29T05:28:06.828Z,6.70
2022-07-29T05:38:06.455Z,4.90
2022-07-29T05:48:11.595Z,5.50
2022-07-29T05:58:11.220Z,6.70
2022-07-29T06:08:10.856Z,5.80
2022-07-29T06:18:11.086Z,5.60
2022-07-29T06:28:10.152Z,5.90
2022-07-29T06:38:25.651Z,5.50
2022-07-29T06:48:09.832Z,5.10
2022-07-29T06:58:14.966Z,7.60
2022-07-29T07:08:14.597Z,8.40
2022-07-29T07:18:14.241Z,5.10
2022-07-29T07:28:13.860Z,6.00
2022-07-29T07:38:13.537Z,5.80
2022-07-29T07:48:18.687Z,5.20
2022-07-29T07:58:18.304Z,6.20
2022-07-29T08:08:17.937Z,9.50
2022-07-29T08:18:17.581Z,5.30
2022-07-29T08:28:17.211Z,5.90
2022-07-29T08:38:22.355Z,6.00
2022-07-29T08:48:21.995Z,5.30
2022-07-29T08:58:23.114Z,8.60
2022-07-29T09:08:21.333Z,9.60
2022-07-29T09:18:30.502Z,10.70
2022-07-29T09:28:26.213Z,7.10
2022-07-29T09:38:25.860Z,7.10
2022-07-29T09:48:25.483Z,12.00
2022-07-29T09:58:25.122Z,8.50
2022-07-29T10:08:30.274Z,6.20
2022-07-29T10:18:29.905Z,9.50
2022-07-29T10:28:29.549Z,8.20
2022-07-29T10:38:29.183Z,6.70
2022-07-29T10:48:34.320Z,5.40
2022-07-29T10:58:33.983Z,5.90
2022-07-29T11:08:33.612Z,5.90
2022-07-29T11:18:33.238Z,6.20
2022-07-29T11:28:38.379Z,7.40
2022-07-29T11:38:38.019Z,6.00
2022-07-29T11:48:37.712Z,7.10
2022-07-29T11:58:38.021Z,5.50
2022-07-29T12:08:42.542Z,5.80
2022-07-29T12:18:42.164Z,7.70
2022-07-29T12:28:41.783Z,7.30
2022-07-29T12:38:46.916Z,7.70
2022-07-29T12:48:46.639Z,7.00
2022-07-29T12:58:50.805Z,7.90
2022-07-29T13:08:46.294Z,8.30
2022-07-29T13:18:51.431Z,6.70
2022-07-29T13:28:51.039Z,7.50
2022-07-29T13:38:50.668Z,6.00
2022-07-29T13:48:55.856Z,6.50
2022-07-29T13:58:55.444Z,7.30
2022-07-29T14:08:55.086Z,8.20
2022-07-29T14:19:00.246Z,7.90
2022-07-29T14:28:59.849Z,6.50
2022-07-29T14:38:59.488Z,6.50
2022-07-29T14:49:04.663Z,6.20
2022-07-29T14:59:04.268Z,8.00
2022-07-29T15:09:03.889Z,6.90
2022-07-29T15:19:09.044Z,7.90
2022-07-29T15:29:08.657Z,6.70
2022-07-29T15:39:08.284Z,7.40
2022-07-29T15:49:08.500Z,7.20
2022-07-29T15:59:22.175Z,7.70
2022-07-29T16:09:13.196Z,9.10
2022-07-29T16:19:13.003Z,7.20
2022-07-29T16:29:18.130Z,6.40
2022-07-29T16:39:17.771Z,6.80
2022-07-29T16:49:18.399Z,6.80
2022-07-29T16:59:22.718Z,6.70
2022-07-29T17:09:22.353Z,7.40
2022-07-29T17:19:21.967Z,8.40
2022-07-29T17:29:27.118Z,8.60
2022-07-29T17:39:26.759Z,8.20
2022-07-29T17:49:26.468Z,9.30
2022-07-29T17:59:31.542Z,8.10
2022-07-29T18:09:31.161Z,9.10
2022-07-29T18:19:30.778Z,9.90
2022-07-29T18:29:35.932Z,8.40
2022-07-29T18:39:35.545Z,7.70
2022-07-29T18:49:35.168Z,8.30
2022-07-29T18:59:40.305Z,9.70
2022-07-29T19:09:49.074Z,8.30
2022-07-29T19:19:39.560Z,8.00
2022-07-29T19:29:39.321Z,7.40
2022-07-29T19:39:44.451Z,8.30
2022-07-29T19:49:44.081Z,7.70
2022-07-29T19:59:44.304Z,7.00
2022-07-29T20:09:48.840Z,7.70
2022-07-29T20:19:48.465Z,7.90
2022-07-29T20:29:48.090Z,6.50
2022-07-29T20:39:47.749Z,8.50
2022-07-29T20:49:52.871Z,7.50
2022-07-29T20:59:52.531Z,7.00
2022-07-29T21:09:52.166Z,8.00
2022-07-29T21:19:51.816Z,8.40
2022-07-29T21:29:56.934Z,6.60
2022-07-29T21:39:56.557Z,8.00
2022-07-29T21:49:56.179Z,7.40
2022-07-29T21:59:58.461Z,8.00
2022-07-29T22:09:55.480Z,8.40
2022-07-29T22:20:00.620Z,7.70
2022-07-29T22:30:00.242Z,7.80
2022-07-29T22:39:59.882Z,8.30
2022-07-29T22:49:59.508Z,9.10
2022-07-29T22:59:59.470Z,8.40
2022-07-29T23:10:04.629Z,7.80
2022-07-29T23:20:04.235Z,8.90
2022-07-29T23:30:03.869Z,8.60
2022-07-29T23:40:03.504Z,7.70
2022-07-29T23:50:03.140Z,6.70
